Time;durP1;ratioP1;P1;durP2;ratioP2;P2;SDS_P1;SDS_P2;PMS_P1;PMS_P2;Temp;Humidity;BMP_temperature;BMP_pressure;BME280_temperature;BME280_humidity;BME280_pressure;Samples;Min_cycle;Max_cycle;Signal;HPM_P1;HPM_P2
2022/07/14 00:00:59;;;;;;;;;;;;;;;15.28;100.00;99732.66;5074447;28;20428;-78
2022/07/14 00:03:26;;;;;;;;;;;;;;;15.19;100.00;99738.88;5074312;28;19932;-78
2022/07/14 00:05:54;;;;;;;;;;;;;;;15.18;100.00;99728.06;5074075;28;20213;-78
2022/07/14 00:08:21;;;;;;;;;;;;;;;15.29;100.00;99726.59;5074308;28;19970;-78
2022/07/14 00:10:48;;;;;;;;;;;;;;;15.31;100.00;99721.28;5073047;28;19955;-78
2022/07/14 00:13:15;;;;;;;;;;;;;;;15.28;100.00;99724.22;5072828;28;20394;-78
2022/07/14 00:15:42;;;;;;;;;;;;;;;15.72;100.00;99713.03;5072807;28;20395;-78
2022/07/14 00:18:09;;;;;;;;;;;;;;;15.54;100.00;99707.06;5072734;28;19931;-78
2022/07/14 00:20:36;;;;;;;;;;;;;;;15.64;100.00;99714.47;5072534;28;19931;-78
2022/07/14 00:23:03;;;;;;;;;;;;;;;15.01;100.00;99721.63;5073944;28;19924;-78
2022/07/14 00:25:31;;;;;;;;;;;;;;;15.06;100.00;99721.09;5072730;28;19928;-78
2022/07/14 00:27:58;;;;;;;;;;;;;;;15.20;100.00;99729.22;5073803;28;19931;-78
2022/07/14 00:30:25;;;;;;;;;;;;;;;14.88;100.00;99720.72;5072547;28;20284;-78
2022/07/14 00:32:52;;;;;;;;;;;;;;;14.89;100.00;99718.72;5055916;28;20489;-78
2022/07/14 00:35:20;;;;;;;;;;;;;;;15.28;100.00;99724.97;5072312;28;19932;-78
2022/07/14 00:37:47;;;;;;;;;;;;;;;15.04;100.00;99712.31;5072658;28;19928;-78
2022/07/14 00:40:14;;;;;;;;;;;;;;;15.45;100.00;99717.38;5071453;28;19924;-78
2022/07/14 00:42:45;;;;;;;;;;;;;;;15.54;100.00;99715.50;5072375;28;20229;-78
2022/07/14 00:45:14;;;;;;;;;;;;;;;14.65;100.00;99720.84;5106226;28;19964;-78
2022/07/14 00:47:42;;;;;;;;;;;;;;;14.95;100.00;99712.13;5073257;28;19978;-78
2022/07/14 00:50:10;;;;;;;;;;;;;;;14.85;100.00;99715.97;5072241;28;20019;-78
2022/07/14 00:52:39;;;;;;;;;;;;;;;14.89;100.00;99715.91;5055745;28;19931;-78
2022/07/14 00:55:07;;;;;;;;;;;;;;;14.82;100.00;99707.59;5072205;28;20054;-78
2022/07/14 00:57:34;;;;;;;;;;;;;;;13.92;100.00;99712.69;5072149;28;19947;-78
2022/07/14 01:00:04;;;;;;;;;;;;;;;13.70;100.00;99711.50;5072066;28;19931;-78
2022/07/14 01:02:31;;;;;;;;;;;;;;;14.04;100.00;99708.47;5071796;28;19924;-78
2022/07/14 01:04:58;;;;;;;;;;;;;;;14.25;100.00;99703.22;5055445;28;19924;-78
2022/07/14 01:07:25;;;;;;;;;;;;;;;14.76;100.00;99704.53;5071948;28;19960;-78
2022/07/14 01:09:52;;;;;;;;;;;;;;;14.31;100.00;99700.72;5055207;28;20284;-78
2022/07/14 01:12:19;;;;;;;;;;;;;;;14.72;100.00;99698.19;5069957;28;20306;-78
2022/07/14 01:14:46;;;;;;;;;;;;;;;14.65;100.00;99694.72;5055385;28;19925;-78
2022/07/14 01:17:13;;;;;;;;;;;;;;;14.19;100.00;99684.47;5054638;28;20441;-78
2022/07/14 01:19:40;;;;;;;;;;;;;;;13.54;100.00;99691.72;5071935;28;19924;-78
2022/07/14 01:22:09;;;;;;;;;;;;;;;13.72;100.00;99702.66;5071791;28;19924;-78
2022/07/14 01:24:36;;;;;;;;;;;;;;;14.42;100.00;99696.44;5071905;28;19925;-78
2022/07/14 01:27:03;;;;;;;;;;;;;;;14.76;100.00;99692.47;5071835;28;20467;-78
2022/07/14 01:29:31;;;;;;;;;;;;;;;14.57;100.00;99696.13;5071830;28;20061;-78
2022/07/14 01:31:58;;;;;;;;;;;;;;;14.21;100.00;99693.25;5071319;28;19928;-78
2022/07/14 01:34:27;;;;;;;;;;;;;;;13.75;100.00;99696.19;5071797;28;19924;-78
2022/07/14 01:36:55;;;;;;;;;;;;;;;14.02;100.00;99692.03;5055038;28;19931;-78
2022/07/14 01:39:22;;;;;;;;;;;;;;;14.03;100.00;99690.00;5071642;28;19928;-78
2022/07/14 01:41:49;;;;;;;;;;;;;;;14.50;100.00;99699.88;5071651;28;19928;-78
2022/07/14 01:44:16;;;;;;;;;;;;;;;14.79;100.00;99697.22;5071569;28;19950;-78
2022/07/14 01:46:43;;;;;;;;;;;;;;;14.96;100.00;99702.47;5071396;28;19932;-78
2022/07/14 01:49:12;;;;;;;;;;;;;;;14.98;100.00;99682.31;5071641;28;19924;-78
2022/07/14 01:51:39;;;;;;;;;;;;;;;15.09;100.00;99686.47;5074335;28;19939;-78
2022/07/14 01:54:06;;;;;;;;;;;;;;;14.70;100.00;99689.41;5075632;28;19924;-78
2022/07/14 01:56:38;;;;;;;;;;;;;;;14.92;100.00;99682.03;5075731;28;19924;-78
2022/07/14 01:59:06;;;;;;;;;;;;;;;14.48;100.00;99682.66;5076779;28;20005;-78
2022/07/14 02:01:39;;;;;;;;;;;;;;;15.03;100.00;99678.97;5075217;28;19928;-78
2022/07/14 02:04:12;;;;;;;;;;;;;;;14.58;100.00;99670.38;5042624;28;19947;-78
2022/07/14 02:06:44;;;;;;;;;;;;;;;14.84;100.00;99677.03;5075376;28;19925;-78
2022/07/14 02:09:20;;;;;;;;;;;;;;;14.26;100.00;99673.09;5075505;28;19924;-78
2022/07/14 02:14:33;;;;;;;;;;;;;;;14.59;100.00;99660.72;5074991;28;19929;-78
2022/07/14 02:17:01;;;;;;;;;;;;;;;14.92;100.00;99667.19;5058363;28;20265;-78
2022/07/14 02:19:28;;;;;;;;;;;;;;;15.06;100.00;99664.03;5058436;28;19928;-78
2022/07/14 02:21:55;;;;;;;;;;;;;;;15.26;100.00;99673.16;5075149;28;19950;-78
2022/07/14 02:24:23;;;;;;;;;;;;;;;15.12;100.00;99671.50;5075028;28;19928;-78
2022/07/14 02:26:51;;;;;;;;;;;;;;;14.04;100.00;99669.91;5075018;28;19932;-78
2022/07/14 02:29:19;;;;;;;;;;;;;;;14.54;100.00;99678.09;5074626;28;20395;-78
2022/07/14 02:31:46;;;;;;;;;;;;;;;14.76;100.00;99676.41;5057940;28;19925;-78
2022/07/14 02:34:15;;;;;;;;;;;;;;;14.54;100.00;99675.28;5074828;28;19952;-78
2022/07/14 02:36:43;;;;;;;;;;;;;;;14.32;100.00;99676.97;5091909;28;19928;-78
2022/07/14 02:39:12;;;;;;;;;;;;;;;14.71;100.00;99667.69;5074957;28;19925;-78
2022/07/14 02:45:27;;;;;;;;;;;;;;;15.18;100.00;99666.94;5074357;28;20098;-78
2022/07/14 02:47:54;;;;;;;;;;;;;;;15.78;100.00;99668.22;5074673;28;19924;-78
2022/07/14 02:50:23;;;;;;;;;;;;;;;16.08;100.00;99671.34;5057909;28;20290;-78
2022/07/14 02:52:51;;;;;;;;;;;;;;;15.84;100.00;99672.84;5074411;28;19931;-78
2022/07/14 02:55:21;;;;;;;;;;;;;;;15.28;100.00;99677.13;5074469;28;20299;-78
2022/07/14 02:57:49;;;;;;;;;;;;;;;15.51;100.00;99668.50;5058006;28;20011;-78
2022/07/14 03:00:16;;;;;;;;;;;;;;;15.46;100.00;99680.34;5074230;28;19925;-78
2022/07/14 03:02:44;;;;;;;;;;;;;;;16.37;100.00;99664.91;5073212;28;19931;-78
2022/07/14 03:05:11;;;;;;;;;;;;;;;16.36;100.00;99668.97;5057555;28;20007;-78
2022/07/14 03:07:38;;;;;;;;;;;;;;;16.33;100.00;99669.88;5074219;28;19924;-78
2022/07/14 03:10:06;;;;;;;;;;;;;;;15.66;100.00;99672.53;5074247;28;19925;-78
2022/07/14 03:12:33;;;;;;;;;;;;;;;16.50;100.00;99679.84;5073747;28;19934;-78
2022/07/14 03:15:01;;;;;;;;;;;;;;;16.91;100.00;99676.94;5074136;28;19924;-78
2022/07/14 03:17:28;;;;;;;;;;;;;;;17.05;100.00;99665.22;5057247;28;19936;-78
2022/07/14 03:19:55;;;;;;;;;;;;;;;17.00;100.00;99674.22;5074114;28;19954;-78
2022/07/14 03:22:23;;;;;;;;;;;;;;;17.18;100.00;99663.16;5057284;28;19974;-78
2022/07/14 03:24:50;;;;;;;;;;;;;;;16.69;100.00;99659.88;5057442;28;19976;-78
2022/07/14 03:27:18;;;;;;;;;;;;;;;16.68;100.00;99643.41;5073669;28;20029;-78
2022/07/14 03:29:46;;;;;;;;;;;;;;;16.81;100.00;99653.44;5073856;28;19924;-78
2022/07/14 03:32:13;;;;;;;;;;;;;;;16.63;100.00;99638.34;5073720;28;19947;-78
2022/07/14 03:34:41;;;;;;;;;;;;;;;16.69;100.00;99630.91;5057233;28;19931;-78
2022/07/14 03:37:09;;;;;;;;;;;;;;;16.87;100.00;99636.75;5073745;28;19939;-78
2022/07/14 03:39:48;;;;;;;;;;;;;;;16.68;100.00;99638.56;5073787;28;19924;-78
2022/07/14 03:42:16;;;;;;;;;;;;;;;16.63;100.00;99639.13;5073252;28;20013;-78
2022/07/14 03:44:45;;;;;;;;;;;;;;;16.61;100.00;99635.19;5073563;28;19931;-78
2022/07/14 03:47:12;;;;;;;;;;;;;;;16.57;100.00;99640.16;5073601;28;20352;-78
2022/07/14 03:49:40;;;;;;;;;;;;;;;16.40;100.00;99641.44;5073501;28;19928;-78
2022/07/14 03:52:09;;;;;;;;;;;;;;;16.47;100.00;99644.88;5040161;28;19931;-78
2022/07/14 03:54:38;;;;;;;;;;;;;;;16.57;100.00;99637.31;5073331;28;20371;-78
2022/07/14 03:57:05;;;;;;;;;;;;;;;16.50;100.00;99643.16;5106754;28;19931;-78
2022/07/14 03:59:40;;;;;;;;;;;;;;;16.62;100.00;99643.19;5073333;28;20019;-78
2022/07/14 04:02:10;;;;;;;;;;;;;;;16.48;100.00;99648.50;5073133;28;20376;-78
2022/07/14 04:04:41;;;;;;;;;;;;;;;16.56;100.00;99652.66;5073267;28;19974;-78
2022/07/14 04:07:15;;;;;;;;;;;;;;;16.55;100.00;99649.06;5073096;28;19932;-78
2022/07/14 04:09:43;;;;;;;;;;;;;;;16.36;100.00;99652.06;5056486;28;19932;-78
2022/07/14 04:12:12;;;;;;;;;;;;;;;16.57;100.00;99666.31;5089757;28;19925;-78
2022/07/14 04:14:40;;;;;;;;;;;;;;;16.72;100.00;99658.22;5072717;28;19925;-78
2022/07/14 04:17:07;;;;;;;;;;;;;;;16.58;100.00;99658.63;5072710;28;19967;-78
2022/07/14 04:19:34;;;;;;;;;;;;;;;16.51;100.00;99659.63;5072929;28;19998;-78
2022/07/14 04:22:05;;;;;;;;;;;;;;;16.69;100.00;99661.94;5072033;28;20291;-78
2022/07/14 04:24:52;;;;;;;;;;;;;;;16.73;100.00;99665.44;5089637;28;20280;-78
2022/07/14 04:27:20;;;;;;;;;;;;;;;16.60;100.00;99668.22;5072424;28;19931;-78
2022/07/14 04:29:47;;;;;;;;;;;;;;;16.54;100.00;99652.31;5072664;28;19925;-78
2022/07/14 04:32:15;;;;;;;;;;;;;;;16.89;100.00;99662.50;5072445;28;20314;-78
2022/07/14 04:34:44;;;;;;;;;;;;;;;16.96;100.00;99653.81;5072617;28;19928;-78
2022/07/14 04:37:12;;;;;;;;;;;;;;;17.00;100.00;99652.44;5072541;28;20268;-78
2022/07/14 04:39:40;;;;;;;;;;;;;;;17.07;100.00;99651.44;5072297;28;19931;-78
2022/07/14 04:42:07;;;;;;;;;;;;;;;17.05;100.00;99648.25;5072404;28;20015;-78
2022/07/14 04:44:35;;;;;;;;;;;;;;;17.03;100.00;99662.03;5072380;28;19950;-78
2022/07/14 04:47:03;;;;;;;;;;;;;;;16.84;100.00;99661.00;5089423;28;19932;-78
2022/07/14 04:52:15;;;;;;;;;;;;;;;16.53;100.00;99673.28;5072167;28;19932;-78
2022/07/14 04:54:50;;;;;;;;;;;;;;;16.67;100.00;99679.31;5072010;28;19924;-78
2022/07/14 04:57:31;;;;;;;;;;;;;;;16.56;100.00;99675.22;5072211;28;19924;-78
2022/07/14 05:00:00;;;;;;;;;;;;;;;16.68;100.00;99685.72;5072183;28;19932;-78
2022/07/14 05:02:27;;;;;;;;;;;;;;;16.79;100.00;99686.19;5072202;28;19974;-78
2022/07/14 05:04:54;;;;;;;;;;;;;;;16.75;100.00;99679.88;5072170;28;19943;-78
2022/07/14 05:07:22;;;;;;;;;;;;;;;17.03;100.00;99685.41;5071956;28;19925;-78
2022/07/14 05:09:55;;;;;;;;;;;;;;;16.95;100.00;99680.47;5055228;28;20314;-78
2022/07/14 05:12:24;;;;;;;;;;;;;;;16.95;100.00;99689.69;5071954;28;19928;-78
2022/07/14 05:14:52;;;;;;;;;;;;;;;17.19;100.00;99688.09;5072000;28;20056;-78
2022/07/14 05:17:19;;;;;;;;;;;;;;;17.29;100.00;99692.63;5071866;28;19931;-78
2022/07/14 05:20:10;;;;;;;;;;;;;;;17.04;100.00;99698.28;5071547;28;20391;-78
2022/07/14 05:22:38;;;;;;;;;;;;;;;16.84;100.00;99699.75;5071871;28;19924;-78
2022/07/14 05:25:08;;;;;;;;;;;;;;;16.77;100.00;99706.41;5071514;28;19924;-78
2022/07/14 05:27:36;;;;;;;;;;;;;;;16.92;100.00;99707.53;5088234;28;20394;-78
2022/07/14 05:30:07;;;;;;;;;;;;;;;17.30;100.00;99705.50;5071831;28;19925;-78
2022/07/14 05:32:35;;;;;;;;;;;;;;;17.08;100.00;99703.81;5054870;28;20286;-78
2022/07/14 05:35:05;;;;;;;;;;;;;;;17.53;100.00;99696.69;5071829;28;20269;-78
2022/07/14 05:37:33;;;;;;;;;;;;;;;17.67;100.00;99701.06;5071496;28;19929;-79
2022/07/14 05:40:01;;;;;;;;;;;;;;;17.33;100.00;99709.44;5071666;28;19947;-78
2022/07/14 05:42:28;;;;;;;;;;;;;;;17.19;100.00;99707.09;5071588;28;19931;-78
2022/07/14 05:44:55;;;;;;;;;;;;;;;17.42;100.00;99713.16;5071738;28;19931;-78
2022/07/14 05:47:23;;;;;;;;;;;;;;;17.37;100.00;99710.13;5105557;28;20272;-78
2022/07/14 05:49:50;;;;;;;;;;;;;;;17.16;100.00;99705.19;5071644;28;20439;-78
2022/07/14 05:52:17;;;;;;;;;;;;;;;17.21;100.00;99702.56;5088337;28;19925;-78
2022/07/14 05:54:45;;;;;;;;;;;;;;;17.56;100.00;99706.28;5071470;28;19943;-78
2022/07/14 05:57:13;;;;;;;;;;;;;;;17.55;100.00;99716.78;5071652;28;20295;-78
2022/07/14 05:59:42;;;;;;;;;;;;;;;17.89;100.00;99711.16;5071450;28;19957;-78
2022/07/14 06:02:11;;;;;;;;;;;;;;;18.09;100.00;99704.41;5088390;28;19960;-78
2022/07/14 06:04:39;;;;;;;;;;;;;;;18.00;100.00;99707.94;5054847;28;19928;-78
2022/07/14 06:07:08;;;;;;;;;;;;;;;18.16;100.00;99709.81;5071059;28;19924;-78
2022/07/14 06:09:38;;;;;;;;;;;;;;;18.03;100.00;99712.69;5071443;28;19931;-78
2022/07/14 06:12:06;;;;;;;;;;;;;;;17.99;100.00;99706.38;5071350;28;20276;-78
2022/07/14 06:14:36;;;;;;;;;;;;;;;18.31;100.00;99713.72;5071455;28;19925;-78
2022/07/14 06:17:03;;;;;;;;;;;;;;;18.35;100.00;99709.50;5071094;28;20378;-78
2022/07/14 06:19:31;;;;;;;;;;;;;;;18.56;100.00;99713.59;5054729;28;19924;-79
2022/07/14 06:21:58;;;;;;;;;;;;;;;18.57;100.00;99706.69;5071111;28;20314;-78
2022/07/14 06:24:25;;;;;;;;;;;;;;;18.39;100.00;99704.50;5071334;28;19929;-78
2022/07/14 06:26:52;;;;;;;;;;;;;;;18.47;100.00;99703.00;5054650;28;19932;-78
2022/07/14 06:29:20;;;;;;;;;;;;;;;18.55;100.00;99693.00;5071170;28;20447;-78
2022/07/14 06:31:49;;;;;;;;;;;;;;;18.50;100.00;99690.75;5054265;28;19924;-78
2022/07/14 06:34:16;;;;;;;;;;;;;;;18.56;100.00;99703.06;5071309;28;19951;-78
2022/07/14 06:37:09;;;;;;;;;;;;;;;18.39;100.00;99706.56;5053493;28;19990;-78
2022/07/14 06:39:36;;;;;;;;;;;;;;;18.81;100.00;99699.28;5057901;28;20375;-78
2022/07/14 06:42:03;;;;;;;;;;;;;;;19.11;100.00;99699.28;5074774;28;19962;-78
2022/07/14 06:44:39;;;;;;;;;;;;;;;18.88;100.00;99699.00;5074694;28;20286;-78
2022/07/14 06:47:06;;;;;;;;;;;;;;;18.79;100.00;99696.13;5074575;28;19951;-78
2022/07/14 06:49:34;;;;;;;;;;;;;;;18.15;100.00;99706.19;5074523;28;19925;-78
2022/07/14 06:52:01;;;;;;;;;;;;;;;18.52;100.00;99696.75;5074164;28;19928;-78
2022/07/14 06:54:31;;;;;;;;;;;;;;;18.59;100.00;99704.97;5074580;28;19979;-78
2022/07/14 06:56:58;;;;;;;;;;;;;;;18.66;100.00;99693.38;5075633;28;19924;-78
2022/07/14 06:59:25;;;;;;;;;;;;;;;18.66;100.00;99707.50;5075667;28;20022;-78
2022/07/14 07:01:52;;;;;;;;;;;;;;;18.69;100.00;99708.66;5075493;28;19925;-78
2022/07/14 07:04:19;;;;;;;;;;;;;;;19.15;100.00;99701.94;5075474;28;19931;-78
2022/07/14 07:06:51;;;;;;;;;;;;;;;19.36;100.00;99701.88;5058034;28;19932;-78
2022/07/14 07:09:19;;;;;;;;;;;;;;;19.43;100.00;99707.25;5074251;28;20023;-78
2022/07/14 07:11:49;;;;;;;;;;;;;;;19.42;100.00;99711.34;5074108;28;20303;-78
2022/07/14 07:14:17;;;;;;;;;;;;;;;18.94;100.00;99709.25;5075431;28;19963;-77
2022/07/14 07:16:45;;;;;;;;;;;;;;;18.71;100.00;99712.59;5074007;28;19925;-78
2022/07/14 07:19:13;;;;;;;;;;;;;;;18.36;100.00;99719.56;5073825;28;19925;-78
2022/07/14 07:21:40;;;;;;;;;;;;;;;18.33;100.00;99725.34;5073927;28;19951;-79
2022/07/14 07:24:09;;;;;;;;;;;;;;;18.11;100.00;99725.34;5075266;28;19928;-78
2022/07/14 07:26:40;;;;;;;;;;;;;;;17.60;100.00;99724.69;5074019;28;20045;-78
2022/07/14 07:29:07;;;;;;;;;;;;;;;17.79;100.00;99736.97;5073859;28;20021;-79
2022/07/14 07:31:34;;;;;;;;;;;;;;;17.96;100.00;99738.41;5057125;28;19924;-78
2022/07/14 07:34:01;;;;;;;;;;;;;;;17.78;100.00;99736.19;5073460;28;19931;-78
2022/07/14 07:36:28;;;;;;;;;;;;;;;17.93;100.00;99742.16;5074972;28;19931;-78
2022/07/14 07:38:56;;;;;;;;;;;;;;;17.82;100.00;99736.88;5073643;28;20022;-78
2022/07/14 07:41:23;;;;;;;;;;;;;;;17.78;100.00;99741.06;5074672;28;19924;-79
2022/07/14 07:43:50;;;;;;;;;;;;;;;17.84;100.00;99744.88;5074739;28;20048;-78
2022/07/14 07:46:17;;;;;;;;;;;;;;;17.82;100.00;99738.88;5074709;28;20391;-78
2022/07/14 07:48:45;;;;;;;;;;;;;;;17.75;100.00;99739.16;5089450;28;19925;-78
2022/07/14 07:51:12;;;;;;;;;;;;;;;17.78;100.00;99736.19;5074550;28;20358;-78
2022/07/14 07:53:40;;;;;;;;;;;;;;;17.89;100.00;99752.78;5073222;28;20470;-78
2022/07/14 07:56:07;;;;;;;;;;;;;;;17.93;100.00;99748.56;5073313;28;20027;-79
2022/07/14 07:58:35;;;;;;;;;;;;;;;17.85;100.00;99740.81;5074441;28;19924;-78
2022/07/14 08:01:02;;;;;;;;;;;;;;;17.82;100.00;99742.50;5073151;28;20389;-79
2022/07/14 08:03:30;;;;;;;;;;;;;;;18.34;100.00;99738.25;5072875;28;20341;-79
2022/07/14 08:05:57;;;;;;;;;;;;;;;18.82;100.00;99741.28;5056371;28;20019;-79
2022/07/14 08:08:36;;;;;;;;;;;;;;;19.47;100.00;99724.91;5074368;28;19924;-78
2022/07/14 08:11:03;;;;;;;;;;;;;;;19.90;100.00;99731.63;5074621;28;20364;-78
2022/07/14 08:13:30;;;;;;;;;;;;;;;20.67;100.00;99722.47;5074073;28;19925;-78
2022/07/14 08:15:58;;;;;;;;;;;;;;;22.08;100.00;99714.25;5073917;28;19925;-79
2022/07/14 08:18:26;;;;;;;;;;;;;;;22.38;100.00;99710.22;5055916;28;19935;-79
2022/07/14 08:20:53;;;;;;;;;;;;;;;22.54;100.00;99698.38;5073885;28;19993;-78
2022/07/14 08:23:20;;;;;;;;;;;;;;;22.42;100.00;99687.22;5072731;28;19990;-79
2022/07/14 08:25:47;;;;;;;;;;;;;;;22.32;100.00;99695.06;5072617;28;20384;-77
2022/07/14 08:28:14;;;;;;;;;;;;;;;21.25;100.00;99706.69;5072616;28;19932;-77
2022/07/14 08:30:41;;;;;;;;;;;;;;;20.30;100.00;99712.41;5073741;28;19947;-76
2022/07/14 08:33:09;;;;;;;;;;;;;;;19.31;100.00;99721.56;5072289;28;19924;-77
2022/07/14 08:35:37;;;;;;;;;;;;;;;19.16;100.00;99712.03;5072128;28;19929;-76
2022/07/14 08:38:04;;;;;;;;;;;;;;;18.70;100.00;99722.34;5073715;28;19947;-76
2022/07/14 08:40:37;;;;;;;;;;;;;;;18.24;100.00;99734.56;5073487;28;20375;-76
2022/07/14 08:43:04;;;;;;;;;;;;;;;18.12;100.00;99728.94;5073644;28;19932;-76
2022/07/14 08:45:35;;;;;;;;;;;;;;;18.62;100.00;99732.34;5072499;28;20287;-76
2022/07/14 08:48:02;;;;;;;;;;;;;;;19.33;100.00;99731.16;5073330;28;19924;-76
2022/07/14 08:50:30;;;;;;;;;;;;;;;18.87;100.00;99729.34;5073410;28;20303;-77
2022/07/14 08:52:57;;;;;;;;;;;;;;;18.45;100.00;99730.19;5073243;28;19928;-76
2022/07/14 08:55:24;;;;;;;;;;;;;;;17.95;100.00;99739.63;5073572;28;19924;-76
2022/07/14 08:57:51;;;;;;;;;;;;;;;18.04;100.00;99741.78;5073411;28;19947;-76
2022/07/14 09:00:19;;;;;;;;;;;;;;;17.76;100.00;99743.53;5072828;28;19932;-76
2022/07/14 09:02:50;;;;;;;;;;;;;;;17.23;100.00;99750.13;5071542;28;19928;-76
2022/07/14 09:05:41;;;;;;;;;;;;;;;17.30;100.00;99749.88;5073332;28;20027;-76
2022/07/14 09:08:11;;;;;;;;;;;;;;;17.52;100.00;99756.47;5055384;28;19925;-76
2022/07/14 09:10:39;;;;;;;;;;;;;;;17.15;100.00;99768.53;5071892;28;19925;-76
2022/07/14 09:13:20;;;;;;;;;;;;;;;16.75;100.00;99761.72;5072093;28;20287;-76
2022/07/14 09:15:48;;;;;;;;;;;;;;;16.51;100.00;99769.66;5072591;28;20031;-76
2022/07/14 09:18:23;;;;;;;;;;;;;;;16.46;100.00;99780.72;5073253;28;20534;-76
2022/07/14 09:20:52;;;;;;;;;;;;;;;17.07;100.00;99767.97;5071905;28;19924;-76
2022/07/14 09:23:33;;;;;;;;;;;;;;;17.11;100.00;99781.97;5071899;28;20020;-76
2022/07/14 09:26:17;;;;;;;;;;;;;;;16.86;100.00;99781.94;5055262;28;19928;-76
2022/07/14 09:28:45;;;;;;;;;;;;;;;16.79;100.00;99779.31;5072999;28;20438;-76
2022/07/14 09:31:28;;;;;;;;;;;;;;;17.04;100.00;99782.97;5054757;28;19932;-76
2022/07/14 09:33:56;;;;;;;;;;;;;;;17.05;100.00;99786.59;5071841;28;19935;-76
2022/07/14 09:36:26;;;;;;;;;;;;;;;17.05;100.00;99783.78;5071823;28;19935;-76
2022/07/14 09:38:56;;;;;;;;;;;;;;;17.21;100.00;99776.00;5071770;28;19951;-76
2022/07/14 09:41:24;;;;;;;;;;;;;;;17.95;100.00;99776.38;5073009;28;19925;-76
2022/07/14 09:44:10;;;;;;;;;;;;;;;18.30;100.00;99772.31;5072806;28;20337;-76
2022/07/14 09:46:46;;;;;;;;;;;;;;;18.46;100.00;99763.69;5073004;28;19998;-76
2022/07/14 09:49:14;;;;;;;;;;;;;;;18.03;100.00;99769.25;5071745;28;19924;-76
2022/07/14 09:51:53;;;;;;;;;;;;;;;18.37;100.00;99766.44;5072784;28;19931;-76
2022/07/14 09:54:39;;;;;;;;;;;;;;;18.30;100.00;99766.66;5072637;28;20017;-76
2022/07/14 09:57:10;;;;;;;;;;;;;;;19.11;100.00;99764.41;5072840;28;20430;-76
2022/07/14 09:59:42;;;;;;;;;;;;;;;19.17;100.00;99756.91;5072472;28;19932;-76
2022/07/14 10:02:13;;;;;;;;;;;;;;;19.19;100.00;99748.69;5072705;28;19947;-76
2022/07/14 10:04:41;;;;;;;;;;;;;;;18.62;100.00;99762.69;5072735;28;19985;-76
2022/07/14 10:07:08;;;;;;;;;;;;;;;19.41;100.00;99769.28;5071441;28;19924;-76
2022/07/14 10:09:38;;;;;;;;;;;;;;;19.07;100.00;99765.78;5072611;28;19924;-76
2022/07/14 10:12:05;;;;;;;;;;;;;;;19.39;100.00;99768.16;5071860;28;19969;-76
2022/07/14 10:14:33;;;;;;;;;;;;;;;19.07;100.00;99775.06;5076229;28;19924;-76
2022/07/14 10:17:00;;;;;;;;;;;;;;;18.99;100.00;99778.66;5076281;28;19928;-76
2022/07/14 10:19:28;;;;;;;;;;;;;;;18.89;100.00;99779.84;5076433;28;19925;-76
2022/07/14 10:21:55;;;;;;;;;;;;;;;19.25;100.00;99780.84;5074983;28;19930;-77
2022/07/14 10:24:22;;;;;;;;;;;;;;;19.39;100.00;99785.97;5076288;28;19924;-76
2022/07/14 10:26:50;;;;;;;;;;;;;;;19.29;100.00;99784.38;5076212;28;19928;-76
2022/07/14 10:29:19;;;;;;;;;;;;;;;19.42;100.00;99773.69;5074709;28;19924;-76
2022/07/14 10:31:50;;;;;;;;;;;;;;;19.71;100.00;99781.81;5076029;28;19925;-77
2022/07/14 10:34:30;;;;;;;;;;;;;;;20.29;100.00;99768.41;5076025;28;19978;-77
2022/07/14 10:37:00;;;;;;;;;;;;;;;20.52;100.00;99772.66;5074894;28;20364;-77
2022/07/14 10:39:33;;;;;;;;;;;;;;;20.70;100.00;99764.13;5076079;28;20452;-77
2022/07/14 10:42:11;;;;;;;;;;;;;;;20.29;100.00;99762.72;5075523;28;19934;-76
2022/07/14 10:44:43;;;;;;;;;;;;;;;20.14;100.00;99772.31;5074790;28;19982;-76
2022/07/14 10:47:11;;;;;;;;;;;;;;;19.92;100.00;99760.31;5075897;28;19924;-76
2022/07/14 10:49:57;;;;;;;;;;;;;;;20.51;100.00;99762.53;5074602;28;19924;-76
2022/07/14 10:52:25;;;;;;;;;;;;;;;20.12;100.00;99758.59;5075790;28;20065;-76
2022/07/14 10:55:11;;;;;;;;;;;;;;;20.24;100.00;99756.88;5075699;28;19924;-76
2022/07/14 10:57:39;;;;;;;;;;;;;;;20.25;100.00;99755.63;5074248;28;19931;-76
2022/07/14 11:00:06;;;;;;;;;;;;;;;20.37;100.00;99758.28;5074490;28;19932;-77
2022/07/14 11:02:34;;;;;;;;;;;;;;;20.22;100.00;99762.25;5075842;28;20330;-76
2022/07/14 11:05:03;;;;;;;;;;;;;;;19.52;100.00;99761.13;5075775;28;20026;-76
2022/07/14 11:07:38;;;;;;;;;;;;;;;20.09;100.00;99762.38;5075594;28;19976;-76
2022/07/14 11:10:18;;;;;;;;;;;;;;;20.82;100.00;99761.09;5057587;28;19951;-77
2022/07/14 11:13:04;;;;;;;;;;;;;;;20.71;100.00;99760.00;5073881;28;19929;-76
2022/07/14 11:15:42;;;;;;;;;;;;;;;20.09;100.00;99761.56;5074030;28;19971;-76
2022/07/14 11:18:18;;;;;;;;;;;;;;;19.21;100.00;99762.41;5074147;28;19990;-76
2022/07/14 11:21:00;;;;;;;;;;;;;;;19.13;100.00;99764.72;5075346;28;19925;-76
2022/07/14 11:23:50;;;;;;;;;;;;;;;19.45;100.00;99775.59;5074625;28;20005;-76
2022/07/14 11:26:37;;;;;;;;;;;;;;;19.06;100.00;99776.34;5073602;28;20389;-77
2022/07/14 11:29:08;;;;;;;;;;;;;;;19.68;100.00;99763.72;5074066;28;19936;-76
2022/07/14 11:32:02;;;;;;;;;;;;;;;20.66;100.00;99757.81;5074974;28;19924;-76
2022/07/14 11:37:56;;;;;;;;;;;;;;;20.58;100.00;99756.56;5075043;28;19931;-76
2022/07/14 11:40:45;;;;;;;;;;;;;;;20.30;100.00;99769.16;5056689;28;20021;-77
2022/07/14 11:43:28;;;;;;;;;;;;;;;20.64;100.00;99766.00;5073759;28;20003;-76
2022/07/14 11:45:56;;;;;;;;;;;;;;;20.29;100.00;99764.75;5073499;28;19971;-77
2022/07/14 11:48:28;;;;;;;;;;;;;;;20.24;100.00;99769.03;5073621;28;19925;-77
2022/07/14 11:51:06;;;;;;;;;;;;;;;19.84;100.00;99776.84;5074866;28;19931;-76
2022/07/14 11:53:33;;;;;;;;;;;;;;;20.02;100.00;99774.03;5073410;28;19925;-76
2022/07/14 11:56:01;;;;;;;;;;;;;;;19.56;100.00;99773.13;5073105;28;19970;-76
2022/07/14 11:58:30;;;;;;;;;;;;;;;19.92;100.00;99768.81;5074476;28;19931;-76
2022/07/14 12:00:59;;;;;;;;;;;;;;;19.39;100.00;99774.63;5040118;28;19925;-76
2022/07/14 12:03:27;;;;;;;;;;;;;;;19.45;100.00;99784.09;5074591;28;20383;-76
2022/07/14 12:05:55;;;;;;;;;;;;;;;19.18;100.00;99780.31;5073208;28;19925;-77
2022/07/14 12:08:24;;;;;;;;;;;;;;;18.97;100.00;99781.97;5074359;28;20019;-76
2022/07/14 12:10:52;;;;;;;;;;;;;;;19.07;100.00;99780.75;5073751;28;20394;-76
2022/07/14 12:13:20;;;;;;;;;;;;;;;18.73;100.00;99778.03;5072983;28;20283;-76
2022/07/14 12:15:48;;;;;;;;;;;;;;;19.28;100.00;99779.94;5074067;28;19932;-76
2022/07/14 12:18:15;;;;;;;;;;;;;;;19.85;100.00;99771.94;5073131;28;20031;-76
2022/07/14 12:20:44;;;;;;;;;;;;;;;19.83;100.00;99758.22;5074417;28;19963;-76
2022/07/14 12:23:14;;;;;;;;;;;;;;;20.48;100.00;99760.66;5073954;28;19932;-76
2022/07/14 12:25:43;;;;;;;;;;;;;;;20.42;100.00;99776.75;5056180;28;19924;-76
2022/07/14 12:28:15;;;;;;;;;;;;;;;20.01;100.00;99775.28;5056218;28;19970;-77
2022/07/14 12:30:43;;;;;;;;;;;;;;;19.67;100.00;99776.28;5073947;28;19931;-76
2022/07/14 12:33:11;;;;;;;;;;;;;;;20.10;100.00;99777.34;5072587;28;19998;-76
2022/07/14 12:35:40;;;;;;;;;;;;;;;20.38;100.00;99764.75;5074118;28;19931;-76
2022/07/14 12:38:09;;;;;;;;;;;;;;;20.41;100.00;99758.13;5073445;28;20336;-76
2022/07/14 12:40:39;;;;;;;;;;;;;;;19.70;100.00;99783.84;5055796;28;20018;-77
2022/07/14 12:43:10;;;;;;;;;;;;;;;19.37;100.00;99773.53;5055883;28;19936;-76
2022/07/14 12:45:55;;;;;;;;;;;;;;;19.82;100.00;99767.19;5073757;28;20264;-76
2022/07/14 12:48:22;;;;;;;;;;;;;;;20.37;100.00;99771.72;5072695;28;19982;-76
2022/07/14 12:50:49;;;;;;;;;;;;;;;20.28;100.00;99781.00;5073538;28;20283;-76
2022/07/14 12:53:17;;;;;;;;;;;;;;;20.24;100.00;99786.03;5073140;28;19963;-76
2022/07/14 12:55:45;;;;;;;;;;;;;;;19.62;100.00;99770.47;5072290;28;19932;-76
2022/07/14 12:58:13;;;;;;;;;;;;;;;20.02;100.00;99767.56;5073472;28;20294;-76
2022/07/14 13:00:41;;;;;;;;;;;;;;;20.69;100.00;99768.22;5073353;28;19933;-76